sensor_id;sensor_type;location;lat;lon;timestamp;P1;durP1;ratioP1;P2;durP2;ratioP2
49310;SDS011;35177;45.900;5.946;2024-03-08T00:02:23;12.05;;;8.02;;
49310;SDS011;35177;45.900;5.946;2024-03-08T00:04:48;14.13;;;8.05;;
49310;SDS011;35177;45.900;5.946;2024-03-08T00:07:13;11.73;;;7.65;;
49310;SDS011;35177;45.900;5.946;2024-03-08T00:09:39;13.15;;;8.35;;
49310;SDS011;35177;45.900;5.946;2024-03-08T00:12:04;13.70;;;8.73;;
49310;SDS011;35177;45.900;5.946;2024-03-08T00:14:29;19.90;;;9.05;;
49310;SDS011;35177;45.900;5.946;2024-03-08T00:16:55;15.18;;;9.35;;
49310;SDS011;35177;45.900;5.946;2024-03-08T00:19:20;15.15;;;9.38;;
49310;SDS011;35177;45.900;5.946;2024-03-08T00:21:45;16.35;;;8.98;;
49310;SDS011;35177;45.900;5.946;2024-03-08T00:24:10;14.50;;;9.18;;
49310;SDS011;35177;45.900;5.946;2024-03-08T00:26:37;15.00;;;9.52;;
49310;SDS011;35177;45.900;5.946;2024-03-08T00:29:02;14.38;;;9.00;;
49310;SDS011;35177;45.900;5.946;2024-03-08T00:31:28;15.70;;;9.85;;
49310;SDS011;35177;45.900;5.946;2024-03-08T00:33:55;15.93;;;9.13;;
49310;SDS011;35177;45.900;5.946;2024-03-08T00:36:21;15.07;;;9.88;;
49310;SDS011;35177;45.900;5.946;2024-03-08T00:38:47;17.77;;;8.55;;
49310;SDS011;35177;45.900;5.946;2024-03-08T00:41:12;15.52;;;8.50;;
49310;SDS011;35177;45.900;5.946;2024-03-08T00:43:38;12.23;;;7.72;;
49310;SDS011;35177;45.900;5.946;2024-03-08T00:46:03;12.73;;;8.43;;
49310;SDS011;35177;45.900;5.946;2024-03-08T00:48:28;13.95;;;8.13;;
49310;SDS011;35177;45.900;5.946;2024-03-08T00:50:53;15.02;;;8.57;;
49310;SDS011;35177;45.900;5.946;2024-03-08T00:53:19;12.13;;;7.43;;
49310;SDS011;35177;45.900;5.946;2024-03-08T00:55:44;14.48;;;8.07;;
49310;SDS011;35177;45.900;5.946;2024-03-08T00:58:11;15.82;;;9.05;;
49310;SDS011;35177;45.900;5.946;2024-03-08T01:00:36;14.25;;;8.52;;
49310;SDS011;35177;45.900;5.946;2024-03-08T01:03:03;15.25;;;9.35;;
49310;SDS011;35177;45.900;5.946;2024-03-08T01:05:29;14.77;;;9.43;;
49310;SDS011;35177;45.900;5.946;2024-03-08T01:07:54;14.30;;;9.23;;
49310;SDS011;35177;45.900;5.946;2024-03-08T01:10:19;13.95;;;8.70;;
49310;SDS011;35177;45.900;5.946;2024-03-08T01:12:44;12.32;;;8.25;;
49310;SDS011;35177;45.900;5.946;2024-03-08T01:15:10;15.77;;;9.52;;
49310;SDS011;35177;45.900;5.946;2024-03-08T01:17:35;16.48;;;8.80;;
49310;SDS011;35177;45.900;5.946;2024-03-08T01:20:01;15.68;;;8.88;;
49310;SDS011;35177;45.900;5.946;2024-03-08T01:22:27;14.85;;;9.52;;
49310;SDS011;35177;45.900;5.946;2024-03-08T01:24:54;15.38;;;9.25;;
49310;SDS011;35177;45.900;5.946;2024-03-08T01:27:19;17.88;;;9.13;;
49310;SDS011;35177;45.900;5.946;2024-03-08T01:29:44;13.73;;;9.20;;
49310;SDS011;35177;45.900;5.946;2024-03-08T01:32:09;14.25;;;9.30;;
49310;SDS011;35177;45.900;5.946;2024-03-08T01:34:35;14.85;;;8.80;;
49310;SDS011;35177;45.900;5.946;2024-03-08T01:37:00;16.98;;;8.98;;
49310;SDS011;35177;45.900;5.946;2024-03-08T01:39:25;14.63;;;9.02;;
49310;SDS011;35177;45.900;5.946;2024-03-08T01:41:51;12.15;;;8.00;;
49310;SDS011;35177;45.900;5.946;2024-03-08T01:44:17;13.55;;;7.75;;
49310;SDS011;35177;45.900;5.946;2024-03-08T01:46:46;13.82;;;7.82;;
49310;SDS011;35177;45.900;5.946;2024-03-08T01:49:12;13.93;;;7.88;;
49310;SDS011;35177;45.900;5.946;2024-03-08T01:51:37;12.23;;;8.02;;
49310;SDS011;35177;45.900;5.946;2024-03-08T01:54:03;15.88;;;8.10;;
49310;SDS011;35177;45.900;5.946;2024-03-08T01:56:29;13.43;;;8.73;;
49310;SDS011;35177;45.900;5.946;2024-03-08T01:58:56;14.63;;;8.07;;
49310;SDS011;35177;45.900;5.946;2024-03-08T02:01:22;14.23;;;8.50;;
49310;SDS011;35177;45.900;5.946;2024-03-08T02:03:47;14.27;;;8.93;;
49310;SDS011;35177;45.900;5.946;2024-03-08T02:06:14;12.70;;;8.30;;
49310;SDS011;35177;45.900;5.946;2024-03-08T02:08:44;13.95;;;8.82;;
49310;SDS011;35177;45.900;5.946;2024-03-08T02:11:10;13.15;;;7.93;;
49310;SDS011;35177;45.900;5.946;2024-03-08T02:13:35;13.80;;;8.48;;
49310;SDS011;35177;45.900;5.946;2024-03-08T02:16:00;15.35;;;8.38;;
49310;SDS011;35177;45.900;5.946;2024-03-08T02:18:26;14.25;;;8.60;;
49310;SDS011;35177;45.900;5.946;2024-03-08T02:20:52;13.63;;;8.07;;
49310;SDS011;35177;45.900;5.946;2024-03-08T02:23:21;14.10;;;8.07;;
49310;SDS011;35177;45.900;5.946;2024-03-08T02:25:46;14.60;;;8.82;;
49310;SDS011;35177;45.900;5.946;2024-03-08T02:28:12;16.30;;;9.32;;
49310;SDS011;35177;45.900;5.946;2024-03-08T02:30:38;16.80;;;9.13;;
49310;SDS011;35177;45.900;5.946;2024-03-08T02:33:04;18.00;;;9.88;;
49310;SDS011;35177;45.900;5.946;2024-03-08T02:35:29;17.90;;;10.63;;
49310;SDS011;35177;45.900;5.946;2024-03-08T02:37:55;16.08;;;9.68;;
49310;SDS011;35177;45.900;5.946;2024-03-08T02:40:20;17.35;;;10.43;;
49310;SDS011;35177;45.900;5.946;2024-03-08T02:42:47;16.38;;;9.55;;
49310;SDS011;35177;45.900;5.946;2024-03-08T02:45:12;18.15;;;10.70;;
49310;SDS011;35177;45.900;5.946;2024-03-08T02:47:38;18.02;;;10.48;;
49310;SDS011;35177;45.900;5.946;2024-03-08T02:50:04;18.95;;;9.45;;
49310;SDS011;35177;45.900;5.946;2024-03-08T02:52:29;19.10;;;9.98;;
49310;SDS011;35177;45.900;5.946;2024-03-08T02:54:55;15.93;;;9.73;;
49310;SDS011;35177;45.900;5.946;2024-03-08T02:57:21;16.60;;;9.10;;
49310;SDS011;35177;45.900;5.946;2024-03-08T02:59:47;15.23;;;10.00;;
49310;SDS011;35177;45.900;5.946;2024-03-08T03:02:12;15.20;;;9.43;;
49310;SDS011;35177;45.900;5.946;2024-03-08T03:04:39;15.80;;;8.85;;
49310;SDS011;35177;45.900;5.946;2024-03-08T03:07:04;17.25;;;10.35;;
49310;SDS011;35177;45.900;5.946;2024-03-08T03:09:30;15.02;;;9.23;;
49310;SDS011;35177;45.900;5.946;2024-03-08T03:11:57;20.67;;;9.70;;
49310;SDS011;35177;45.900;5.946;2024-03-08T03:14:23;15.25;;;9.32;;
49310;SDS011;35177;45.900;5.946;2024-03-08T03:16:48;16.17;;;9.27;;
49310;SDS011;35177;45.900;5.946;2024-03-08T03:19:13;13.90;;;7.70;;
49310;SDS011;35177;45.900;5.946;2024-03-08T03:21:40;13.98;;;8.15;;
49310;SDS011;35177;45.900;5.946;2024-03-08T03:24:08;15.18;;;8.93;;
49310;SDS011;35177;45.900;5.946;2024-03-08T03:26:35;15.38;;;8.70;;
49310;SDS011;35177;45.900;5.946;2024-03-08T03:29:03;15.43;;;8.18;;
49310;SDS011;35177;45.900;5.946;2024-03-08T03:31:30;12.05;;;7.88;;
49310;SDS011;35177;45.900;5.946;2024-03-08T03:33:56;17.05;;;8.35;;
49310;SDS011;35177;45.900;5.946;2024-03-08T03:36:26;13.02;;;7.78;;
49310;SDS011;35177;45.900;5.946;2024-03-08T03:38:52;14.05;;;8.75;;
49310;SDS011;35177;45.900;5.946;2024-03-08T03:41:29;15.95;;;9.63;;
49310;SDS011;35177;45.900;5.946;2024-03-08T03:43:54;17.83;;;9.52;;
49310;SDS011;35177;45.900;5.946;2024-03-08T03:46:20;23.48;;;9.43;;
49310;SDS011;35177;45.900;5.946;2024-03-08T03:48:45;20.10;;;10.43;;
49310;SDS011;35177;45.900;5.946;2024-03-08T03:51:11;15.52;;;9.65;;
49310;SDS011;35177;45.900;5.946;2024-03-08T03:53:36;17.25;;;10.00;;
49310;SDS011;35177;45.900;5.946;2024-03-08T03:56:02;15.63;;;9.10;;
49310;SDS011;35177;45.900;5.946;2024-03-08T03:58:27;18.00;;;10.38;;
49310;SDS011;35177;45.900;5.946;2024-03-08T04:00:52;25.88;;;10.98;;
49310;SDS011;35177;45.900;5.946;2024-03-08T04:03:18;16.83;;;10.18;;
49310;SDS011;35177;45.900;5.946;2024-03-08T04:05:43;17.70;;;9.95;;
49310;SDS011;35177;45.900;5.946;2024-03-08T04:08:10;17.83;;;10.18;;
49310;SDS011;35177;45.900;5.946;2024-03-08T04:10:35;18.63;;;10.70;;
49310;SDS011;35177;45.900;5.946;2024-03-08T04:13:00;21.88;;;11.40;;
49310;SDS011;35177;45.900;5.946;2024-03-08T04:15:25;18.38;;;10.13;;
49310;SDS011;35177;45.900;5.946;2024-03-08T04:17:51;18.00;;;11.32;;
49310;SDS011;35177;45.900;5.946;2024-03-08T04:20:16;19.52;;;11.15;;
49310;SDS011;35177;45.900;5.946;2024-03-08T04:22:42;19.08;;;11.77;;
49310;SDS011;35177;45.900;5.946;2024-03-08T04:25:09;21.33;;;11.13;;
49310;SDS011;35177;45.900;5.946;2024-03-08T04:27:35;18.73;;;10.98;;
49310;SDS011;35177;45.900;5.946;2024-03-08T04:30:00;24.00;;;12.82;;
49310;SDS011;35177;45.900;5.946;2024-03-08T04:32:26;24.35;;;12.32;;
49310;SDS011;35177;45.900;5.946;2024-03-08T04:34:51;22.60;;;11.35;;
49310;SDS011;35177;45.900;5.946;2024-03-08T04:37:16;20.77;;;11.05;;
49310;SDS011;35177;45.900;5.946;2024-03-08T04:39:47;22.15;;;11.30;;
49310;SDS011;35177;45.900;5.946;2024-03-08T04:42:12;18.55;;;11.10;;
49310;SDS011;35177;45.900;5.946;2024-03-08T04:44:38;22.92;;;12.50;;
49310;SDS011;35177;45.900;5.946;2024-03-08T04:47:04;20.15;;;12.50;;
49310;SDS011;35177;45.900;5.946;2024-03-08T04:49:31;22.05;;;12.88;;
49310;SDS011;35177;45.900;5.946;2024-03-08T04:51:56;21.40;;;12.73;;
49310;SDS011;35177;45.900;5.946;2024-03-08T04:54:21;25.52;;;13.20;;
49310;SDS011;35177;45.900;5.946;2024-03-08T04:56:46;27.20;;;13.88;;
49310;SDS011;35177;45.900;5.946;2024-03-08T04:59:12;28.40;;;14.43;;
49310;SDS011;35177;45.900;5.946;2024-03-08T05:01:38;21.48;;;12.13;;
49310;SDS011;35177;45.900;5.946;2024-03-08T05:04:04;24.17;;;13.30;;
49310;SDS011;35177;45.900;5.946;2024-03-08T05:06:29;25.48;;;13.68;;
49310;SDS011;35177;45.900;5.946;2024-03-08T05:08:55;26.65;;;14.00;;
49310;SDS011;35177;45.900;5.946;2024-03-08T05:11:20;23.83;;;12.95;;
49310;SDS011;35177;45.900;5.946;2024-03-08T05:13:46;23.95;;;12.68;;
49310;SDS011;35177;45.900;5.946;2024-03-08T05:16:11;24.08;;;13.48;;
49310;SDS011;35177;45.900;5.946;2024-03-08T05:18:37;22.88;;;13.45;;
49310;SDS011;35177;45.900;5.946;2024-03-08T05:21:02;24.63;;;13.30;;
49310;SDS011;35177;45.900;5.946;2024-03-08T05:23:29;25.40;;;14.38;;
49310;SDS011;35177;45.900;5.946;2024-03-08T05:25:54;25.58;;;13.57;;
49310;SDS011;35177;45.900;5.946;2024-03-08T05:28:19;28.15;;;14.25;;
49310;SDS011;35177;45.900;5.946;2024-03-08T05:30:45;27.67;;;14.82;;
49310;SDS011;35177;45.900;5.946;2024-03-08T05:33:10;26.10;;;14.20;;
49310;SDS011;35177;45.900;5.946;2024-03-08T05:35:36;23.25;;;13.52;;
49310;SDS011;35177;45.900;5.946;2024-03-08T05:38:01;26.40;;;13.68;;
49310;SDS011;35177;45.900;5.946;2024-03-08T05:40:27;23.10;;;13.68;;
49310;SDS011;35177;45.900;5.946;2024-03-08T05:42:57;24.85;;;14.30;;
49310;SDS011;35177;45.900;5.946;2024-03-08T05:45:22;23.17;;;13.82;;
49310;SDS011;35177;45.900;5.946;2024-03-08T05:47:47;23.25;;;13.40;;
49310;SDS011;35177;45.900;5.946;2024-03-08T05:50:12;23.20;;;13.38;;
49310;SDS011;35177;45.900;5.946;2024-03-08T05:52:38;24.65;;;14.27;;
49310;SDS011;35177;45.900;5.946;2024-03-08T05:55:03;24.08;;;13.98;;
49310;SDS011;35177;45.900;5.946;2024-03-08T05:57:32;26.85;;;14.23;;
49310;SDS011;35177;45.900;5.946;2024-03-08T05:59:57;23.45;;;13.35;;
49310;SDS011;35177;45.900;5.946;2024-03-08T06:02:22;26.23;;;14.13;;
49310;SDS011;35177;45.900;5.946;2024-03-08T06:04:48;25.05;;;13.10;;
49310;SDS011;35177;45.900;5.946;2024-03-08T06:07:14;28.70;;;13.75;;
49310;SDS011;35177;45.900;5.946;2024-03-08T06:09:40;29.35;;;14.55;;
49310;SDS011;35177;45.900;5.946;2024-03-08T06:12:05;28.92;;;14.48;;
49310;SDS011;35177;45.900;5.946;2024-03-08T06:14:31;25.70;;;13.57;;
49310;SDS011;35177;45.900;5.946;2024-03-08T06:16:57;25.75;;;15.18;;
49310;SDS011;35177;45.900;5.946;2024-03-08T06:19:22;24.55;;;14.05;;
49310;SDS011;35177;45.900;5.946;2024-03-08T06:21:47;27.00;;;14.60;;
49310;SDS011;35177;45.900;5.946;2024-03-08T06:24:13;26.13;;;14.60;;
49310;SDS011;35177;45.900;5.946;2024-03-08T06:26:40;25.13;;;14.35;;
49310;SDS011;35177;45.900;5.946;2024-03-08T06:29:06;25.40;;;14.38;;
49310;SDS011;35177;45.900;5.946;2024-03-08T06:31:31;27.90;;;15.38;;
49310;SDS011;35177;45.900;5.946;2024-03-08T06:33:57;25.80;;;14.95;;
49310;SDS011;35177;45.900;5.946;2024-03-08T06:36:22;26.80;;;15.13;;
49310;SDS011;35177;45.900;5.946;2024-03-08T06:38:48;24.50;;;14.15;;
49310;SDS011;35177;45.900;5.946;2024-03-08T06:41:13;26.55;;;15.25;;
49310;SDS011;35177;45.900;5.946;2024-03-08T06:43:43;28.73;;;15.05;;
49310;SDS011;35177;45.900;5.946;2024-03-08T06:46:08;25.50;;;14.63;;
49310;SDS011;35177;45.900;5.946;2024-03-08T06:48:34;26.00;;;15.43;;
49310;SDS011;35177;45.900;5.946;2024-03-08T06:51:00;27.95;;;15.90;;
49310;SDS011;35177;45.900;5.946;2024-03-08T06:53:25;27.85;;;16.02;;
49310;SDS011;35177;45.900;5.946;2024-03-08T06:55:50;25.65;;;15.32;;
49310;SDS011;35177;45.900;5.946;2024-03-08T06:58:16;28.20;;;15.82;;
49310;SDS011;35177;45.900;5.946;2024-03-08T07:00:41;28.65;;;16.50;;
49310;SDS011;35177;45.900;5.946;2024-03-08T07:03:08;29.35;;;16.90;;
49310;SDS011;35177;45.900;5.946;2024-03-08T07:05:37;30.67;;;16.77;;
49310;SDS011;35177;45.900;5.946;2024-03-08T07:08:02;27.45;;;15.60;;
49310;SDS011;35177;45.900;5.946;2024-03-08T07:10:27;27.27;;;16.63;;
49310;SDS011;35177;45.900;5.946;2024-03-08T07:12:53;29.48;;;16.10;;
49310;SDS011;35177;45.900;5.946;2024-03-08T07:15:19;25.73;;;15.25;;
49310;SDS011;35177;45.900;5.946;2024-03-08T07:17:45;25.65;;;15.73;;
49310;SDS011;35177;45.900;5.946;2024-03-08T07:20:10;25.15;;;15.38;;
49310;SDS011;35177;45.900;5.946;2024-03-08T07:22:37;25.63;;;16.55;;
49310;SDS011;35177;45.900;5.946;2024-03-08T07:25:04;25.23;;;16.10;;
49310;SDS011;35177;45.900;5.946;2024-03-08T07:27:45;30.83;;;17.13;;
49310;SDS011;35177;45.900;5.946;2024-03-08T07:30:11;22.98;;;15.15;;
49310;SDS011;35177;45.900;5.946;2024-03-08T07:32:36;25.25;;;15.15;;
49310;SDS011;35177;45.900;5.946;2024-03-08T07:35:02;26.02;;;16.20;;
49310;SDS011;35177;45.900;5.946;2024-03-08T07:37:28;26.00;;;15.77;;
49310;SDS011;35177;45.900;5.946;2024-03-08T07:39:54;26.52;;;15.52;;
49310;SDS011;35177;45.900;5.946;2024-03-08T07:42:19;27.08;;;16.55;;
49310;SDS011;35177;45.900;5.946;2024-03-08T07:44:44;29.55;;;16.85;;
49310;SDS011;35177;45.900;5.946;2024-03-08T07:47:11;28.15;;;17.67;;
49310;SDS011;35177;45.900;5.946;2024-03-08T07:49:37;28.55;;;17.02;;
49310;SDS011;35177;45.900;5.946;2024-03-08T07:52:02;29.23;;;16.27;;
49310;SDS011;35177;45.900;5.946;2024-03-08T07:54:29;26.95;;;16.10;;
49310;SDS011;35177;45.900;5.946;2024-03-08T07:56:54;23.48;;;14.88;;
49310;SDS011;35177;45.900;5.946;2024-03-08T07:59:19;25.52;;;15.80;;
49310;SDS011;35177;45.900;5.946;2024-03-08T08:01:46;26.77;;;16.00;;
49310;SDS011;35177;45.900;5.946;2024-03-08T08:04:12;26.08;;;15.98;;
49310;SDS011;35177;45.900;5.946;2024-03-08T08:06:39;20.70;;;13.88;;
49310;SDS011;35177;45.900;5.946;2024-03-08T08:09:07;21.88;;;14.13;;
49310;SDS011;35177;45.900;5.946;2024-03-08T08:11:39;23.08;;;15.13;;
49310;SDS011;35177;45.900;5.946;2024-03-08T08:14:04;26.08;;;14.57;;
49310;SDS011;35177;45.900;5.946;2024-03-08T08:16:29;22.45;;;14.40;;
49310;SDS011;35177;45.900;5.946;2024-03-08T08:18:54;27.75;;;15.43;;
49310;SDS011;35177;45.900;5.946;2024-03-08T08:21:20;24.67;;;15.23;;
49310;SDS011;35177;45.900;5.946;2024-03-08T08:23:47;25.80;;;16.00;;
49310;SDS011;35177;45.900;5.946;2024-03-08T08:26:12;25.30;;;14.85;;
49310;SDS011;35177;45.900;5.946;2024-03-08T08:28:37;27.75;;;14.73;;
49310;SDS011;35177;45.900;5.946;2024-03-08T08:31:03;26.00;;;15.48;;
49310;SDS011;35177;45.900;5.946;2024-03-08T08:33:29;27.92;;;16.05;;
49310;SDS011;35177;45.900;5.946;2024-03-08T08:35:54;28.58;;;16.98;;
49310;SDS011;35177;45.900;5.946;2024-03-08T08:38:19;27.33;;;15.48;;
49310;SDS011;35177;45.900;5.946;2024-03-08T08:40:45;25.90;;;15.77;;
49310;SDS011;35177;45.900;5.946;2024-03-08T08:43:12;26.70;;;15.43;;
49310;SDS011;35177;45.900;5.946;2024-03-08T08:45:37;28.30;;;15.85;;
49310;SDS011;35177;45.900;5.946;2024-03-08T08:48:03;30.13;;;16.15;;
49310;SDS011;35177;45.900;5.946;2024-03-08T08:50:30;28.23;;;17.15;;
49310;SDS011;35177;45.900;5.946;2024-03-08T08:52:56;26.45;;;16.05;;
49310;SDS011;35177;45.900;5.946;2024-03-08T08:55:21;26.85;;;16.55;;
49310;SDS011;35177;45.900;5.946;2024-03-08T08:57:50;30.33;;;17.23;;
49310;SDS011;35177;45.900;5.946;2024-03-08T09:00:17;28.67;;;16.17;;
49310;SDS011;35177;45.900;5.946;2024-03-08T09:02:43;28.95;;;16.77;;
49310;SDS011;35177;45.900;5.946;2024-03-08T09:05:09;23.38;;;14.77;;
49310;SDS011;35177;45.900;5.946;2024-03-08T09:07:34;27.77;;;16.73;;
49310;SDS011;35177;45.900;5.946;2024-03-08T09:10:00;26.95;;;15.75;;
49310;SDS011;35177;45.900;5.946;2024-03-08T09:12:25;29.80;;;16.17;;
49310;SDS011;35177;45.900;5.946;2024-03-08T09:14:51;26.15;;;16.05;;
49310;SDS011;35177;45.900;5.946;2024-03-08T09:17:16;25.05;;;15.48;;
49310;SDS011;35177;45.900;5.946;2024-03-08T09:19:47;26.23;;;16.10;;
49310;SDS011;35177;45.900;5.946;2024-03-08T09:22:13;28.73;;;15.82;;
49310;SDS011;35177;45.900;5.946;2024-03-08T09:24:38;22.95;;;14.40;;
49310;SDS011;35177;45.900;5.946;2024-03-08T09:27:03;22.15;;;13.25;;
49310;SDS011;35177;45.900;5.946;2024-03-08T09:29:29;25.60;;;14.73;;
49310;SDS011;35177;45.900;5.946;2024-03-08T09:31:54;24.00;;;14.85;;
49310;SDS011;35177;45.900;5.946;2024-03-08T09:34:20;26.25;;;15.30;;
49310;SDS011;35177;45.900;5.946;2024-03-08T09:36:45;22.98;;;14.10;;
49310;SDS011;35177;45.900;5.946;2024-03-08T09:39:10;21.13;;;13.70;;
49310;SDS011;35177;45.900;5.946;2024-03-08T09:41:41;24.23;;;14.70;;
49310;SDS011;35177;45.900;5.946;2024-03-08T09:44:07;25.45;;;15.57;;
49310;SDS011;35177;45.900;5.946;2024-03-08T09:46:33;20.50;;;13.40;;
49310;SDS011;35177;45.900;5.946;2024-03-08T09:48:59;22.17;;;13.68;;
49310;SDS011;35177;45.900;5.946;2024-03-08T09:51:27;21.92;;;13.35;;
49310;SDS011;35177;45.900;5.946;2024-03-08T09:53:52;23.02;;;13.40;;
49310;SDS011;35177;45.900;5.946;2024-03-08T09:56:18;22.33;;;14.18;;
49310;SDS011;35177;45.900;5.946;2024-03-08T09:58:44;19.40;;;12.57;;
49310;SDS011;35177;45.900;5.946;2024-03-08T10:01:28;21.58;;;13.27;;
49310;SDS011;35177;45.900;5.946;2024-03-08T10:03:53;21.23;;;12.75;;
49310;SDS011;35177;45.900;5.946;2024-03-08T10:06:22;18.00;;;11.50;;
49310;SDS011;35177;45.900;5.946;2024-03-08T10:08:47;21.13;;;13.50;;
49310;SDS011;35177;45.900;5.946;2024-03-08T10:11:13;17.45;;;12.32;;
49310;SDS011;35177;45.900;5.946;2024-03-08T10:13:38;19.23;;;12.93;;
49310;SDS011;35177;45.900;5.946;2024-03-08T10:16:05;17.75;;;11.63;;
49310;SDS011;35177;45.900;5.946;2024-03-08T10:18:30;20.25;;;12.82;;
49310;SDS011;35177;45.900;5.946;2024-03-08T10:21:04;19.50;;;12.23;;
49310;SDS011;35177;45.900;5.946;2024-03-08T10:23:30;18.13;;;12.05;;
49310;SDS011;35177;45.900;5.946;2024-03-08T10:25:55;18.77;;;12.43;;
49310;SDS011;35177;45.900;5.946;2024-03-08T10:28:23;20.55;;;13.20;;
49310;SDS011;35177;45.900;5.946;2024-03-08T10:30:49;23.48;;;13.98;;
49310;SDS011;35177;45.900;5.946;2024-03-08T10:33:15;19.60;;;12.35;;
49310;SDS011;35177;45.900;5.946;2024-03-08T10:35:40;17.92;;;11.95;;
49310;SDS011;35177;45.900;5.946;2024-03-08T10:38:06;18.23;;;12.15;;
49310;SDS011;35177;45.900;5.946;2024-03-08T10:40:33;19.90;;;11.60;;
49310;SDS011;35177;45.900;5.946;2024-03-08T10:42:59;19.75;;;12.13;;
49310;SDS011;35177;45.900;5.946;2024-03-08T10:45:31;21.35;;;12.48;;
49310;SDS011;35177;45.900;5.946;2024-03-08T10:50:27;19.83;;;12.75;;
49310;SDS011;35177;45.900;5.946;2024-03-08T10:52:52;19.70;;;13.13;;
49310;SDS011;35177;45.900;5.946;2024-03-08T10:55:18;19.20;;;12.85;;
49310;SDS011;35177;45.900;5.946;2024-03-08T10:57:45;18.02;;;12.43;;
49310;SDS011;35177;45.900;5.946;2024-03-08T11:00:11;19.88;;;12.40;;
49310;SDS011;35177;45.900;5.946;2024-03-08T11:02:37;20.13;;;12.98;;
49310;SDS011;35177;45.900;5.946;2024-03-08T11:05:05;18.20;;;12.38;;
49310;SDS011;35177;45.900;5.946;2024-03-08T11:07:37;19.38;;;11.95;;
49310;SDS011;35177;45.900;5.946;2024-03-08T11:10:06;19.10;;;12.93;;
49310;SDS011;35177;45.900;5.946;2024-03-08T11:12:38;17.00;;;11.45;;
49310;SDS011;35177;45.900;5.946;2024-03-08T11:15:10;21.42;;;12.93;;
49310;SDS011;35177;45.900;5.946;2024-03-08T11:20:04;23.92;;;13.00;;
49310;SDS011;35177;45.900;5.946;2024-03-08T11:22:33;21.73;;;12.57;;
49310;SDS011;35177;45.900;5.946;2024-03-08T11:25:02;18.90;;;12.00;;
49310;SDS011;35177;45.900;5.946;2024-03-08T11:27:28;18.48;;;12.65;;
49310;SDS011;35177;45.900;5.946;2024-03-08T11:30:00;19.73;;;13.10;;
49310;SDS011;35177;45.900;5.946;2024-03-08T11:32:34;20.25;;;12.77;;
49310;SDS011;35177;45.900;5.946;2024-03-08T11:35:00;18.17;;;12.82;;
49310;SDS011;35177;45.900;5.946;2024-03-08T11:37:30;20.17;;;12.43;;
49310;SDS011;35177;45.900;5.946;2024-03-08T11:39:59;21.48;;;13.32;;
49310;SDS011;35177;45.900;5.946;2024-03-08T11:42:26;20.92;;;13.40;;
49310;SDS011;35177;45.900;5.946;2024-03-08T11:44:52;20.15;;;12.65;;
49310;SDS011;35177;45.900;5.946;2024-03-08T11:47:17;22.75;;;13.20;;
49310;SDS011;35177;45.900;5.946;2024-03-08T11:49:43;21.08;;;13.35;;
49310;SDS011;35177;45.900;5.946;2024-03-08T11:52:13;21.83;;;13.63;;
49310;SDS011;35177;45.900;5.946;2024-03-08T11:54:38;22.50;;;12.43;;
49310;SDS011;35177;45.900;5.946;2024-03-08T11:57:04;20.10;;;12.63;;
49310;SDS011;35177;45.900;5.946;2024-03-08T11:59:30;20.95;;;13.63;;
49310;SDS011;35177;45.900;5.946;2024-03-08T12:02:02;19.10;;;13.05;;
49310;SDS011;35177;45.900;5.946;2024-03-08T12:04:28;20.60;;;13.20;;
49310;SDS011;35177;45.900;5.946;2024-03-08T12:06:53;21.52;;;13.48;;
49310;SDS011;35177;45.900;5.946;2024-03-08T12:09:19;24.05;;;15.27;;
49310;SDS011;35177;45.900;5.946;2024-03-08T12:11:47;19.27;;;12.23;;
49310;SDS011;35177;45.900;5.946;2024-03-08T12:14:12;25.98;;;13.35;;
49310;SDS011;35177;45.900;5.946;2024-03-08T12:16:37;20.95;;;13.40;;
49310;SDS011;35177;45.900;5.946;2024-03-08T12:19:03;21.23;;;13.52;;
49310;SDS011;35177;45.900;5.946;2024-03-08T12:21:31;22.58;;;14.48;;
49310;SDS011;35177;45.900;5.946;2024-03-08T12:24:07;24.27;;;14.25;;
49310;SDS011;35177;45.900;5.946;2024-03-08T12:26:36;20.67;;;12.55;;
49310;SDS011;35177;45.900;5.946;2024-03-08T12:29:15;23.17;;;13.45;;
49310;SDS011;35177;45.900;5.946;2024-03-08T12:31:42;21.45;;;13.30;;
49310;SDS011;35177;45.900;5.946;2024-03-08T12:34:08;24.48;;;14.48;;
49310;SDS011;35177;45.900;5.946;2024-03-08T12:36:35;25.10;;;14.93;;
49310;SDS011;35177;45.900;5.946;2024-03-08T12:39:01;25.25;;;14.95;;
49310;SDS011;35177;45.900;5.946;2024-03-08T12:41:28;26.58;;;14.45;;
49310;SDS011;35177;45.900;5.946;2024-03-08T12:43:54;22.67;;;14.00;;
49310;SDS011;35177;45.900;5.946;2024-03-08T12:46:20;20.73;;;13.23;;
49310;SDS011;35177;45.900;5.946;2024-03-08T12:48:46;22.13;;;13.63;;
49310;SDS011;35177;45.900;5.946;2024-03-08T12:51:15;26.67;;;14.63;;
49310;SDS011;35177;45.900;5.946;2024-03-08T12:53:41;22.60;;;13.48;;
49310;SDS011;35177;45.900;5.946;2024-03-08T12:56:09;25.25;;;13.35;;
49310;SDS011;35177;45.900;5.946;2024-03-08T12:58:34;21.10;;;13.00;;
49310;SDS011;35177;45.900;5.946;2024-03-08T13:01:01;21.10;;;13.40;;
49310;SDS011;35177;45.900;5.946;2024-03-08T13:03:29;23.42;;;14.27;;
49310;SDS011;35177;45.900;5.946;2024-03-08T13:05:55;23.58;;;13.75;;
49310;SDS011;35177;45.900;5.946;2024-03-08T13:08:22;25.67;;;14.80;;
49310;SDS011;35177;45.900;5.946;2024-03-08T13:10:49;25.25;;;14.35;;
49310;SDS011;35177;45.900;5.946;2024-03-08T13:13:16;25.95;;;13.25;;
49310;SDS011;35177;45.900;5.946;2024-03-08T13:15:42;21.77;;;12.05;;
49310;SDS011;35177;45.900;5.946;2024-03-08T13:18:07;21.67;;;12.48;;
49310;SDS011;35177;45.900;5.946;2024-03-08T13:20:34;20.45;;;13.02;;
49310;SDS011;35177;45.900;5.946;2024-03-08T13:23:02;25.17;;;13.27;;
49310;SDS011;35177;45.900;5.946;2024-03-08T13:25:27;21.75;;;13.35;;
49310;SDS011;35177;45.900;5.946;2024-03-08T13:27:53;24.27;;;14.18;;
49310;SDS011;35177;45.900;5.946;2024-03-08T13:30:21;23.35;;;13.57;;
49310;SDS011;35177;45.900;5.946;2024-03-08T13:32:51;21.67;;;13.43;;
49310;SDS011;35177;45.900;5.946;2024-03-08T13:35:16;26.88;;;14.57;;
49310;SDS011;35177;45.900;5.946;2024-03-08T13:37:49;23.65;;;13.80;;
49310;SDS011;35177;45.900;5.946;2024-03-08T13:40:14;23.77;;;13.38;;
49310;SDS011;35177;45.900;5.946;2024-03-08T13:42:40;22.40;;;13.45;;
49310;SDS011;35177;45.900;5.946;2024-03-08T13:45:06;23.40;;;13.25;;
49310;SDS011;35177;45.900;5.946;2024-03-08T13:47:34;23.60;;;13.23;;
49310;SDS011;35177;45.900;5.946;2024-03-08T13:49:59;23.85;;;14.20;;
49310;SDS011;35177;45.900;5.946;2024-03-08T13:52:25;23.40;;;13.65;;
49310;SDS011;35177;45.900;5.946;2024-03-08T13:54:54;23.30;;;13.55;;
49310;SDS011;35177;45.900;5.946;2024-03-08T13:57:19;23.30;;;14.35;;
49310;SDS011;35177;45.900;5.946;2024-03-08T13:59:44;23.40;;;14.18;;
49310;SDS011;35177;45.900;5.946;2024-03-08T14:02:10;22.02;;;14.20;;
49310;SDS011;35177;45.900;5.946;2024-03-08T14:04:38;23.85;;;13.40;;
49310;SDS011;35177;45.900;5.946;2024-03-08T14:07:04;24.42;;;13.52;;
49310;SDS011;35177;45.900;5.946;2024-03-08T14:09:33;22.33;;;13.50;;
49310;SDS011;35177;45.900;5.946;2024-03-08T14:12:02;22.60;;;13.35;;
49310;SDS011;35177;45.900;5.946;2024-03-08T14:14:31;21.52;;;13.95;;
49310;SDS011;35177;45.900;5.946;2024-03-08T14:16:56;21.02;;;13.30;;
49310;SDS011;35177;45.900;5.946;2024-03-08T14:19:23;23.27;;;13.75;;
49310;SDS011;35177;45.900;5.946;2024-03-08T14:21:48;20.85;;;12.35;;
49310;SDS011;35177;45.900;5.946;2024-03-08T14:24:14;25.65;;;12.88;;
49310;SDS011;35177;45.900;5.946;2024-03-08T14:26:40;23.30;;;12.98;;